Sentinel, Oklahoma
Current Conditions -  °F | °C
As of 12:53 AM on Thursday 23 Oct 2014 (Local Time) from KCSM Reporting Station
Haze Haze  
Wind Chill: 60°   Ceiling: Unl
Heat Index: 60°   Visibility: 4mi
Dew Point: 58°   Wind: 9mph
Humidity: 93%   Direction: 180°S
Pressure: 30.11"   Gusts: NA
Location:  35.16°N, 99.18°W
Report Text: KCSM 230553Z 18008KT 4SM BR FEW043 16/14 A3011 RMK AO2 SLP181 60000 T01560144 10167 20156 402440128 58007
Loading
Personal Weather Stations






























Interactive Weather Map
Tropical Storm Tracking
New forecast layout! Learn more

10-Day Weather Forecast

Advertisements
Track Severe Weather on mobile